San Buenaventura, California
Current Conditions -  °F | °C
As of 12:51 AM on Friday 31 Oct 2014 (Local Time) from KOXR Reporting Station
Clear Clear  
Wind Chill: 59°   Ceiling: Unl
Heat Index: 59°   Visibility: 9mi
Dew Point: 55°   Wind: 5mph
Humidity: 87%   Direction: 90°E
Pressure: 29.95"   Gusts: NA
Location:  34.2816°N, 119.223°W
Report Text: KOXR 310751Z AUTO 09004KT 9SM CLR 15/13 A2995 RMK AO2 SLP142 T01500128 402280128
Loading
Personal Weather Stations






























Interactive Weather Map
Tropical Storm Tracking
New forecast layout! Learn more

10-Day Weather Forecast

Advertisements
Track Severe Weather on mobile